createdAt,value
2017-08-07T00:00:51.726Z,75.27
2017-08-07T00:01:57.793Z,75.29
2017-08-07T00:03:03.507Z,75.44
2017-08-07T00:04:09.535Z,75.47
2017-08-07T00:05:16.528Z,75.53
2017-08-07T00:06:25.926Z,75.35
2017-08-07T00:07:32.055Z,75.41
2017-08-07T00:08:38.081Z,75.65
2017-08-07T00:09:48.026Z,75.75
2017-08-07T00:10:55.841Z,75.47
2017-08-07T00:12:01.985Z,75.40
2017-08-07T00:13:08.056Z,75.55
2017-08-07T00:14:13.901Z,75.96
2017-08-07T00:15:19.936Z,75.92
2017-08-07T00:16:25.985Z,76.34
2017-08-07T00:17:31.953Z,76.55
2017-08-07T00:18:38.004Z,76.99
2017-08-07T00:19:44.063Z,77.44
2017-08-07T00:20:54.908Z,77.23
2017-08-07T00:22:00.981Z,77.42
2017-08-07T00:23:07.070Z,77.59
2017-08-07T00:24:13.161Z,77.92
2017-08-07T00:25:19.211Z,77.81
2017-08-07T00:26:25.269Z,77.56
2017-08-07T00:27:31.325Z,77.34
2017-08-07T00:28:37.394Z,77.41
2017-08-07T00:29:43.285Z,77.65
2017-08-07T00:30:49.320Z,77.81
2017-08-07T00:31:55.358Z,78.15
2017-08-07T00:33:01.506Z,78.45
2017-08-07T00:34:07.573Z,78.40
2017-08-07T00:35:13.618Z,78.39
2017-08-07T00:36:19.653Z,77.81
2017-08-07T00:37:25.688Z,77.66
2017-08-07T00:38:31.796Z,77.80
2017-08-07T00:39:37.903Z,77.34
2017-08-07T00:40:43.925Z,77.01
2017-08-07T00:41:49.961Z,76.62
2017-08-07T00:42:56.035Z,76.93
2017-08-07T00:44:02.129Z,77.50
2017-08-07T00:45:08.221Z,77.24
2017-08-07T00:46:14.246Z,77.44
2017-08-07T00:47:20.296Z,77.25
2017-08-07T00:48:26.325Z,77.56
2017-08-07T00:49:32.417Z,78.03
2017-08-07T00:50:38.490Z,77.59
2017-08-07T00:51:44.520Z,77.46
2017-08-07T00:52:52.752Z,77.73
2017-08-07T00:53:58.796Z,77.95
2017-08-07T00:55:04.880Z,78.09
2017-08-07T00:56:10.982Z,78.09
2017-08-07T00:57:17.069Z,77.83
2017-08-07T00:58:23.149Z,78.27
2017-08-07T00:59:29.181Z,78.52
2017-08-07T01:00:35.223Z,78.52
2017-08-07T01:01:41.103Z,78.89
2017-08-07T01:02:46.972Z,78.47
2017-08-07T01:03:53.036Z,78.08
2017-08-07T01:04:59.096Z,77.75
2017-08-07T01:06:05.165Z,78.11
2017-08-07T01:07:11.253Z,78.08
2017-08-07T01:08:17.329Z,78.44
2017-08-07T01:09:23.371Z,78.44
2017-08-07T01:10:30.386Z,78.43
2017-08-07T01:11:36.443Z,78.74
2017-08-07T01:12:42.527Z,78.32
2017-08-07T01:13:48.573Z,77.85
2017-08-07T01:14:54.618Z,78.06
2017-08-07T01:16:00.685Z,78.02
2017-08-07T01:17:06.736Z,77.51
2017-08-07T01:18:12.900Z,77.74
2017-08-07T01:19:18.947Z,77.89
2017-08-07T01:20:24.985Z,78.05
2017-08-07T01:21:31.541Z,78.05
2017-08-07T01:22:37.423Z,78.34
2017-08-07T01:23:43.512Z,78.54
2017-08-07T01:24:49.581Z,78.56
2017-08-07T01:25:55.652Z,78.82
2017-08-07T01:27:01.782Z,78.99
2017-08-07T01:28:07.812Z,78.59
2017-08-07T01:29:13.927Z,78.47
2017-08-07T01:30:19.971Z,78.63
2017-08-07T01:31:26.032Z,78.43
2017-08-07T01:32:31.884Z,78.19
2017-08-07T01:33:37.905Z,77.96
2017-08-07T01:34:43.969Z,78.57
2017-08-07T01:35:50.871Z,78.95
2017-08-07T01:36:56.905Z,79.15
2017-08-07T01:38:02.941Z,78.68
2017-08-07T01:39:08.988Z,78.50
2017-08-07T01:40:15.071Z,78.47
2017-08-07T01:41:21.104Z,78.25
2017-08-07T01:42:27.160Z,78.19
2017-08-07T01:43:33.284Z,78.89
2017-08-07T01:44:39.330Z,78.65
2017-08-07T01:45:45.027Z,78.35
2017-08-07T01:46:50.347Z,78.54
2017-08-07T01:47:56.382Z,78.87
2017-08-07T01:49:01.880Z,78.74
2017-08-07T01:50:07.580Z,78.53
2017-08-07T01:51:13.660Z,78.50
2017-08-07T01:52:19.129Z,78.58
2017-08-07T01:53:24.778Z,78.53
2017-08-07T01:54:30.803Z,79.19
2017-08-07T01:55:36.658Z,79.25
2017-08-07T01:56:42.733Z,79.28
2017-08-07T01:57:48.779Z,79.35
2017-08-07T01:58:54.829Z,79.22
2017-08-07T02:00:00.505Z,79.10
2017-08-07T02:01:05.621Z,79.58
2017-08-07T02:02:10.805Z,80.07
2017-08-07T02:03:16.877Z,80.13
2017-08-07T02:04:22.905Z,80.16
2017-08-07T02:05:28.262Z,80.44
2017-08-07T02:06:34.306Z,80.67
2017-08-07T02:07:40.459Z,80.79
2017-08-07T02:08:46.474Z,80.67
2017-08-07T02:09:52.521Z,80.57
2017-08-07T02:10:58.590Z,80.62
2017-08-07T02:12:04.641Z,80.44
2017-08-07T02:13:10.503Z,79.93
2017-08-07T02:14:16.570Z,79.78
2017-08-07T02:15:22.622Z,79.47
2017-08-07T02:16:28.650Z,79.87
2017-08-07T02:17:34.686Z,80.30
2017-08-07T02:18:40.628Z,80.38
2017-08-07T02:19:46.650Z,80.33
2017-08-07T02:20:52.712Z,80.42
2017-08-07T02:21:58.741Z,80.09
2017-08-07T02:23:04.799Z,80.41
2017-08-07T02:24:10.854Z,80.37
2017-08-07T02:25:16.865Z,79.91
2017-08-07T02:26:22.912Z,79.34
2017-08-07T02:27:28.940Z,79.20
2017-08-07T02:28:35.002Z,79.33
2017-08-07T02:29:41.133Z,80.06
2017-08-07T02:30:47.163Z,80.46
2017-08-07T02:31:54.182Z,80.68
2017-08-07T02:33:00.224Z,80.50
2017-08-07T02:34:06.129Z,80.55
2017-08-07T02:35:12.231Z,80.92
2017-08-07T02:36:18.264Z,80.79
2017-08-07T02:37:24.297Z,80.71
2017-08-07T02:38:30.331Z,80.44
2017-08-07T02:39:36.363Z,80.60
2017-08-07T02:40:42.429Z,80.45
2017-08-07T02:41:48.443Z,81.07
2017-08-07T02:42:54.286Z,80.68
2017-08-07T02:44:00.434Z,80.32
2017-08-07T02:45:06.674Z,80.30
2017-08-07T02:46:12.770Z,80.51
2017-08-07T02:47:18.815Z,80.73
2017-08-07T02:48:24.857Z,81.09
2017-08-07T02:49:30.897Z,81.29
2017-08-07T02:50:36.977Z,81.21
2017-08-07T02:51:43.070Z,80.99
2017-08-07T02:52:49.112Z,81.00
2017-08-07T02:53:55.145Z,80.99
2017-08-07T02:55:01.225Z,80.93
2017-08-07T02:56:07.257Z,80.94
2017-08-07T02:57:13.349Z,81.25
2017-08-07T02:58:19.213Z,81.44
2017-08-07T02:59:25.232Z,81.33
2017-08-07T03:00:31.305Z,81.01
2017-08-07T03:01:37.364Z,80.72
2017-08-07T03:02:43.434Z,81.17
2017-08-07T03:03:49.266Z,81.19
2017-08-07T03:04:55.293Z,81.39
2017-08-07T03:06:01.354Z,81.45
2017-08-07T03:07:07.378Z,81.47
2017-08-07T03:08:13.451Z,81.32
2017-08-07T03:09:24.588Z,81.68
2017-08-07T03:10:30.454Z,81.51
2017-08-07T03:11:40.528Z,81.21
2017-08-07T03:12:46.569Z,80.88
2017-08-07T03:13:52.645Z,80.95
2017-08-07T03:15:00.320Z,81.00
2017-08-07T03:16:06.424Z,80.75
2017-08-07T03:17:12.471Z,80.91
2017-08-07T03:18:18.540Z,81.01
2017-08-07T03:19:24.629Z,81.08
2017-08-07T03:20:31.573Z,80.90
2017-08-07T03:21:37.602Z,80.98
2017-08-07T03:22:43.646Z,80.63
2017-08-07T03:23:49.707Z,80.58
2017-08-07T03:24:55.788Z,80.62
2017-08-07T03:26:01.990Z,80.42
2017-08-07T03:27:08.225Z,80.59
2017-08-07T03:28:14.301Z,81.18
2017-08-07T03:29:20.342Z,81.33
2017-08-07T03:30:26.416Z,81.00
2017-08-07T03:31:32.444Z,80.85
2017-08-07T03:32:38.489Z,80.81
2017-08-07T03:33:44.560Z,81.11
2017-08-07T03:34:50.406Z,80.60
2017-08-07T03:35:56.469Z,80.52
2017-08-07T03:37:02.583Z,80.24
2017-08-07T03:38:08.640Z,80.14
2017-08-07T03:39:14.725Z,80.64
2017-08-07T03:40:20.050Z,80.53
2017-08-07T03:41:26.157Z,80.30
2017-08-07T03:42:32.199Z,80.01
2017-08-07T03:43:38.268Z,79.88
2017-08-07T03:44:44.305Z,80.09
2017-08-07T03:45:50.343Z,80.24
2017-08-07T03:46:56.449Z,80.53
2017-08-07T03:48:02.469Z,80.83
2017-08-07T03:49:08.505Z,81.32
2017-08-07T03:50:14.540Z,81.70
2017-08-07T03:51:20.586Z,81.59
2017-08-07T03:52:26.677Z,81.17
2017-08-07T03:53:32.702Z,80.95
2017-08-07T03:54:38.738Z,81.28
2017-08-07T03:55:44.776Z,80.91
2017-08-07T03:56:50.813Z,81.27
2017-08-07T03:57:56.912Z,81.15
2017-08-07T03:59:02.971Z,80.64
2017-08-07T04:00:09.029Z,80.50
2017-08-07T04:01:15.105Z,80.54
2017-08-07T04:02:21.151Z,80.58
2017-08-07T04:03:27.215Z,81.17
2017-08-07T04:04:33.245Z,81.14
2017-08-07T04:05:39.292Z,80.96
2017-08-07T04:06:45.361Z,81.29
2017-08-07T04:07:51.398Z,81.39
2017-08-07T04:08:57.461Z,81.19
2017-08-07T04:10:03.581Z,81.37
2017-08-07T04:11:09.687Z,81.50
2017-08-07T04:12:15.765Z,81.33
2017-08-07T04:13:21.801Z,81.37
2017-08-07T04:14:27.902Z,81.69
2017-08-07T04:15:33.963Z,81.59
2017-08-07T04:16:40.025Z,81.58
2017-08-07T04:17:46.117Z,81.72
2017-08-07T04:18:52.250Z,81.89
2017-08-07T04:19:58.689Z,81.37
2017-08-07T04:21:04.929Z,81.34
2017-08-07T04:22:10.961Z,81.61
2017-08-07T04:23:17.068Z,81.24
2017-08-07T04:24:22.944Z,81.29
2017-08-07T04:25:29.014Z,81.25
2017-08-07T04:26:35.062Z,81.72
2017-08-07T04:27:41.090Z,82.03
2017-08-07T04:28:47.173Z,81.82
2017-08-07T04:29:53.326Z,81.62
2017-08-07T04:30:59.410Z,81.83
2017-08-07T04:32:05.448Z,81.96
2017-08-07T04:33:11.498Z,81.96
2017-08-07T04:34:17.603Z,81.63
2017-08-07T04:35:23.671Z,81.75
2017-08-07T04:36:29.743Z,81.95
2017-08-07T04:37:35.749Z,81.63
2017-08-07T04:38:41.780Z,81.75
2017-08-07T04:39:47.794Z,81.74
2017-08-07T04:40:53.806Z,81.98
2017-08-07T04:41:59.882Z,82.09
2017-08-07T04:43:05.916Z,82.25
2017-08-07T04:44:11.934Z,81.81
2017-08-07T04:45:17.938Z,81.65
2017-08-07T04:46:23.973Z,81.87
2017-08-07T04:47:30.052Z,82.25
2017-08-07T04:48:36.071Z,82.34
2017-08-07T04:49:42.119Z,82.40
2017-08-07T04:50:48.146Z,82.59
2017-08-07T04:51:54.225Z,82.32
2017-08-07T04:53:00.292Z,82.25
2017-08-07T04:54:06.317Z,82.24
2017-08-07T04:55:12.371Z,82.17
2017-08-07T04:56:18.415Z,82.10
2017-08-07T04:57:24.505Z,82.27
2017-08-07T04:58:30.579Z,81.96
2017-08-07T04:59:36.590Z,81.90
2017-08-07T05:00:42.624Z,82.14
2017-08-07T05:01:48.644Z,81.70
2017-08-07T05:02:54.675Z,81.99
2017-08-07T05:04:00.717Z,81.59
2017-08-07T05:05:06.795Z,81.62
2017-08-07T05:06:12.843Z,81.89
2017-08-07T05:07:18.881Z,82.12
2017-08-07T05:08:24.896Z,81.61
2017-08-07T05:09:30.960Z,81.13
2017-08-07T05:10:36.987Z,80.56
2017-08-07T05:11:43.061Z,81.27
2017-08-07T05:12:49.085Z,81.31
2017-08-07T05:13:56.583Z,81.74
2017-08-07T05:15:05.976Z,81.99
2017-08-07T05:16:13.450Z,82.09
2017-08-07T05:17:21.149Z,82.21
2017-08-07T05:18:30.667Z,81.43
2017-08-07T05:19:38.709Z,81.59
2017-08-07T05:20:45.540Z,81.66
2017-08-07T05:21:51.555Z,81.83
2017-08-07T05:22:57.563Z,81.93
2017-08-07T05:24:03.568Z,81.83
2017-08-07T05:25:09.590Z,81.74
2017-08-07T05:26:15.636Z,82.07
2017-08-07T05:27:21.639Z,82.28
2017-08-07T05:28:27.644Z,81.99
2017-08-07T05:29:33.671Z,81.58
2017-08-07T05:30:39.702Z,81.80
2017-08-07T05:31:45.765Z,81.66
2017-08-07T05:32:51.771Z,81.50
2017-08-07T05:33:57.770Z,81.39
2017-08-07T05:35:03.793Z,81.37
2017-08-07T05:36:09.816Z,81.50
2017-08-07T05:37:15.857Z,81.52
2017-08-07T05:38:21.895Z,82.09
2017-08-07T05:39:27.926Z,81.63
2017-08-07T05:40:33.944Z,82.04
2017-08-07T05:41:39.980Z,82.04
2017-08-07T05:42:46.030Z,81.42
2017-08-07T05:43:52.060Z,80.73
2017-08-07T05:44:58.081Z,80.64
2017-08-07T05:46:04.081Z,80.71
2017-08-07T05:47:10.176Z,80.43
2017-08-07T05:48:16.235Z,80.60
2017-08-07T05:49:22.241Z,81.10
2017-08-07T05:50:28.277Z,81.06
2017-08-07T05:51:34.303Z,80.66
2017-08-07T05:52:40.132Z,80.55
2017-08-07T05:53:46.180Z,80.48
2017-08-07T05:54:52.193Z,80.09
2017-08-07T05:55:58.224Z,79.80
2017-08-07T05:57:04.249Z,79.56
2017-08-07T05:58:10.283Z,79.62
2017-08-07T05:59:16.337Z,79.23
2017-08-07T06:00:22.345Z,79.23
2017-08-07T06:01:28.186Z,78.68
2017-08-07T06:02:34.196Z,79.02
2017-08-07T06:03:40.199Z,78.85
2017-08-07T06:04:46.256Z,78.61
2017-08-07T06:05:52.282Z,78.11
2017-08-07T06:06:58.300Z,77.44
2017-08-07T06:08:04.301Z,77.97
2017-08-07T06:09:10.306Z,78.14
2017-08-07T06:10:16.358Z,77.76
2017-08-07T06:11:22.383Z,78.30
2017-08-07T06:12:28.472Z,78.37
2017-08-07T06:13:35.481Z,78.69
2017-08-07T06:14:43.228Z,78.37
2017-08-07T06:15:51.092Z,77.78
2017-08-07T06:16:59.639Z,77.48
2017-08-07T06:18:07.296Z,77.97
2017-08-07T06:19:14.673Z,77.28
2017-08-07T06:20:23.011Z,76.78
2017-08-07T06:21:30.904Z,77.73
2017-08-07T06:22:38.476Z,77.60
2017-08-07T06:23:46.048Z,77.49
2017-08-07T06:24:55.421Z,77.42
2017-08-07T06:26:03.857Z,77.62
2017-08-07T06:27:13.222Z,77.80
2017-08-07T06:28:19.712Z,77.35
2017-08-07T06:29:25.768Z,76.50
2017-08-07T06:30:31.816Z,75.88
2017-08-07T06:31:37.857Z,75.60
2017-08-07T06:32:43.915Z,75.42
2017-08-07T06:33:49.940Z,75.06
2017-08-07T06:34:55.959Z,74.88
2017-08-07T06:36:02.251Z,75.88
2017-08-07T06:37:08.266Z,75.33
2017-08-07T06:38:14.154Z,73.51
2017-08-07T06:39:20.190Z,74.34
2017-08-07T06:40:26.228Z,74.40
2017-08-07T06:41:32.242Z,74.42
2017-08-07T06:42:38.258Z,74.59
2017-08-07T06:43:44.331Z,74.37
2017-08-07T06:44:50.352Z,74.30
2017-08-07T06:45:56.360Z,74.09
2017-08-07T06:47:02.510Z,73.55
2017-08-07T06:48:08.525Z,73.33
2017-08-07T06:49:14.595Z,72.98
2017-08-07T06:50:20.628Z,73.50
2017-08-07T06:51:26.653Z,73.25
2017-08-07T06:52:32.674Z,73.62
2017-08-07T06:53:38.701Z,73.70
2017-08-07T06:54:44.760Z,73.83
2017-08-07T06:55:50.782Z,73.39
2017-08-07T06:56:56.845Z,72.64
2017-08-07T06:58:02.891Z,71.81
2017-08-07T06:59:09.276Z,71.44
2017-08-07T07:00:15.665Z,70.97
2017-08-07T07:01:21.480Z,70.46
2017-08-07T07:02:27.505Z,70.56
2017-08-07T07:03:33.539Z,70.80
2017-08-07T07:04:39.538Z,70.52
2017-08-07T07:05:45.587Z,71.11
2017-08-07T07:06:51.597Z,70.87
2017-08-07T07:07:57.653Z,70.08
2017-08-07T07:09:03.615Z,69.97
2017-08-07T07:10:09.680Z,69.28
2017-08-07T07:11:15.718Z,69.45
2017-08-07T07:12:21.750Z,69.62
2017-08-07T07:13:27.801Z,69.41
2017-08-07T07:14:34.220Z,69.69
2017-08-07T07:15:40.353Z,68.98
2017-08-07T07:16:46.418Z,68.46
2017-08-07T07:17:52.439Z,69.02
2017-08-07T07:18:58.457Z,68.60
2017-08-07T07:20:04.487Z,68.11
2017-08-07T07:21:10.510Z,68.35
2017-08-07T07:22:16.557Z,67.84
2017-08-07T07:23:22.592Z,67.75
2017-08-07T07:24:28.636Z,68.11
2017-08-07T07:25:34.662Z,67.95
2017-08-07T07:26:40.685Z,66.79
2017-08-07T07:27:46.749Z,66.22
2017-08-07T07:28:52.841Z,65.80
2017-08-07T07:29:58.876Z,65.58
2017-08-07T07:31:04.908Z,65.00
2017-08-07T07:32:11.629Z,64.93
2017-08-07T07:33:17.737Z,64.86
2017-08-07T07:34:23.790Z,64.39
2017-08-07T07:35:29.631Z,64.24
2017-08-07T07:36:35.645Z,64.36
2017-08-07T07:37:41.672Z,63.83
2017-08-07T07:38:47.729Z,63.19
2017-08-07T07:39:53.838Z,63.12
2017-08-07T07:40:59.853Z,62.60
2017-08-07T07:42:05.899Z,61.84
2017-08-07T07:43:11.908Z,61.84
2017-08-07T07:44:17.984Z,60.83
2017-08-07T07:45:24.016Z,61.21
2017-08-07T07:46:29.859Z,60.68
2017-08-07T07:47:35.901Z,60.56
2017-08-07T07:48:41.916Z,60.85
2017-08-07T07:49:48.066Z,61.94
2017-08-07T07:50:54.124Z,61.85
2017-08-07T07:51:59.961Z,61.18
2017-08-07T07:53:05.843Z,60.51
2017-08-07T07:54:11.897Z,60.58
2017-08-07T07:55:17.964Z,60.20
2017-08-07T07:56:24.020Z,59.88
2017-08-07T07:57:30.070Z,59.25
2017-08-07T07:58:36.093Z,58.86
2017-08-07T07:59:42.116Z,58.52
2017-08-07T08:00:48.189Z,58.02
2017-08-07T08:01:54.226Z,57.38
2017-08-07T08:03:00.380Z,56.94
2017-08-07T08:04:06.493Z,56.29
2017-08-07T08:05:12.321Z,56.97
2017-08-07T08:06:18.395Z,56.72
2017-08-07T08:07:24.412Z,56.45
2017-08-07T08:08:30.243Z,56.80
2017-08-07T08:09:36.255Z,55.89
2017-08-07T08:10:42.291Z,55.49
2017-08-07T08:11:48.366Z,54.94
2017-08-07T08:12:54.427Z,54.92
2017-08-07T08:14:00.548Z,54.98
2017-08-07T08:15:06.592Z,54.68
2017-08-07T08:16:12.644Z,54.99
2017-08-07T08:17:18.747Z,54.91
2017-08-07T08:18:24.790Z,55.39
2017-08-07T08:19:30.845Z,54.97
2017-08-07T08:20:36.888Z,55.19
2017-08-07T08:21:42.925Z,55.05
2017-08-07T08:22:49.002Z,55.07
2017-08-07T08:23:55.049Z,55.76
2017-08-07T08:25:01.089Z,56.21
2017-08-07T08:26:07.150Z,55.95
2017-08-07T08:27:13.202Z,56.24
2017-08-07T08:28:19.273Z,56.01
2017-08-07T08:29:25.309Z,55.64
2017-08-07T08:30:31.338Z,55.61
2017-08-07T08:31:37.412Z,55.43
2017-08-07T08:32:43.446Z,55.74
2017-08-07T08:33:49.531Z,55.25
2017-08-07T08:34:55.562Z,54.84
2017-08-07T08:36:01.634Z,54.52
2017-08-07T08:37:07.669Z,54.59
2017-08-07T08:38:13.773Z,54.79
2017-08-07T08:39:19.870Z,55.74
2017-08-07T08:40:25.897Z,55.61
2017-08-07T08:41:31.933Z,55.00
2017-08-07T08:42:37.963Z,54.89
2017-08-07T08:43:43.980Z,53.83
2017-08-07T08:44:50.054Z,54.25
2017-08-07T08:45:56.115Z,54.38
2017-08-07T08:47:02.210Z,54.32
2017-08-07T08:48:08.286Z,53.64
2017-08-07T08:49:14.168Z,53.05
2017-08-07T08:50:20.250Z,52.69
2017-08-07T08:51:26.272Z,52.24
2017-08-07T08:52:32.315Z,51.89
2017-08-07T08:53:38.363Z,51.83
2017-08-07T08:54:44.423Z,51.73
2017-08-07T08:55:50.504Z,50.99
2017-08-07T08:56:56.559Z,51.84
2017-08-07T08:58:02.674Z,50.05
2017-08-07T08:59:08.752Z,49.39
2017-08-07T09:00:14.797Z,49.74
2017-08-07T09:01:20.689Z,48.27
2017-08-07T09:02:26.745Z,48.29
2017-08-07T09:03:32.444Z,48.45
2017-08-07T09:04:38.489Z,48.51
2017-08-07T09:05:44.160Z,47.06
2017-08-07T09:06:50.258Z,46.21
2017-08-07T09:07:56.292Z,46.63
2017-08-07T09:09:02.380Z,47.07
2017-08-07T09:10:08.412Z,47.56
2017-08-07T09:11:14.459Z,47.73
2017-08-07T09:12:20.530Z,47.87
2017-08-07T09:13:26.637Z,47.40
2017-08-07T09:14:32.699Z,46.55
2017-08-07T09:15:38.733Z,47.12
2017-08-07T09:16:44.781Z,47.63
2017-08-07T09:17:50.868Z,47.45
2017-08-07T09:18:56.931Z,47.45
2017-08-07T09:20:03.017Z,47.81
2017-08-07T09:21:09.051Z,48.08
2017-08-07T09:22:15.086Z,48.87
2017-08-07T09:23:21.170Z,48.68
2017-08-07T09:24:27.215Z,48.63
2017-08-07T09:25:33.261Z,47.95
2017-08-07T09:26:39.341Z,46.79
2017-08-07T09:27:45.404Z,46.15
2017-08-07T09:28:51.492Z,46.39
2017-08-07T09:29:57.534Z,45.71
2017-08-07T09:31:03.837Z,44.48
2017-08-07T09:32:09.878Z,44.16
2017-08-07T09:33:15.893Z,44.17
2017-08-07T09:34:21.962Z,44.46
2017-08-07T09:35:28.018Z,45.52
2017-08-07T09:36:34.072Z,46.29
2017-08-07T09:37:40.174Z,46.00
2017-08-07T09:38:46.238Z,46.58
2017-08-07T09:39:52.321Z,45.02
2017-08-07T09:40:58.758Z,44.82
2017-08-07T09:42:05.201Z,43.86
2017-08-07T09:43:11.270Z,42.54
2017-08-07T09:44:17.322Z,43.17
2017-08-07T09:45:23.422Z,43.38
2017-08-07T09:46:29.490Z,43.47
2017-08-07T09:47:35.537Z,43.59
2017-08-07T09:48:41.590Z,43.92
2017-08-07T09:49:47.627Z,43.37
2017-08-07T09:50:53.696Z,43.39
2017-08-07T09:51:59.745Z,43.94
2017-08-07T09:53:05.780Z,43.00
2017-08-07T09:54:11.806Z,43.33
2017-08-07T09:55:17.839Z,43.11
2017-08-07T09:56:23.921Z,42.72
2017-08-07T09:57:29.958Z,42.47
2017-08-07T09:58:35.997Z,42.85
2017-08-07T09:59:42.024Z,42.84
2017-08-07T10:00:48.069Z,41.95
2017-08-07T10:01:54.166Z,42.63
2017-08-07T10:03:00.301Z,42.42
2017-08-07T10:04:06.394Z,42.35
2017-08-07T10:05:12.449Z,42.71
2017-08-07T10:06:18.514Z,42.76
2017-08-07T10:07:24.600Z,42.15
2017-08-07T10:08:30.661Z,41.38
2017-08-07T10:09:36.717Z,40.98
2017-08-07T10:10:42.755Z,40.74
2017-08-07T10:11:48.798Z,40.69
2017-08-07T10:12:54.883Z,40.15
2017-08-07T10:14:01.024Z,40.49
2017-08-07T10:15:07.406Z,40.58
2017-08-07T10:16:13.906Z,39.98
2017-08-07T10:17:19.950Z,38.93
2017-08-07T10:18:26.030Z,38.17
2017-08-07T10:19:32.061Z,37.91
2017-08-07T10:20:38.101Z,38.18
2017-08-07T10:21:44.165Z,38.64
2017-08-07T10:22:55.065Z,38.95
2017-08-07T10:24:01.251Z,39.09
2017-08-07T10:25:06.971Z,39.14
2017-08-07T10:26:13.054Z,38.88
2017-08-07T10:27:19.134Z,37.95
2017-08-07T10:28:25.154Z,37.41
2017-08-07T10:29:31.241Z,36.65
2017-08-07T10:30:37.303Z,37.22
2017-08-07T10:31:43.385Z,37.78
2017-08-07T10:32:49.440Z,38.02
2017-08-07T10:33:55.759Z,37.37
2017-08-07T10:35:01.860Z,36.77
2017-08-07T10:36:07.924Z,36.71
2017-08-07T10:37:13.980Z,37.02
2017-08-07T10:38:20.044Z,37.48
2017-08-07T10:39:26.104Z,38.40
2017-08-07T10:40:32.176Z,37.80
2017-08-07T10:41:38.251Z,37.89
2017-08-07T10:42:44.309Z,37.87
2017-08-07T10:43:50.344Z,37.75
2017-08-07T10:44:56.400Z,38.02
2017-08-07T10:46:02.602Z,38.13
2017-08-07T10:47:08.669Z,37.93
2017-08-07T10:48:14.724Z,37.83
2017-08-07T10:49:20.746Z,38.55
2017-08-07T10:50:26.831Z,39.05
2017-08-07T10:51:32.913Z,37.90
2017-08-07T10:52:38.968Z,37.88
2017-08-07T10:53:45.037Z,37.63
2017-08-07T10:54:51.093Z,37.94
2017-08-07T10:55:57.169Z,37.30
2017-08-07T10:57:03.266Z,37.32
2017-08-07T10:58:09.323Z,37.86
2017-08-07T10:59:15.354Z,37.64
2017-08-07T11:00:21.388Z,37.93
2017-08-07T11:01:27.288Z,38.30
2017-08-07T11:02:33.409Z,37.77
2017-08-07T11:03:39.446Z,37.55
2017-08-07T11:04:45.525Z,38.09
2017-08-07T11:05:51.569Z,36.96
2017-08-07T11:06:57.619Z,37.78
2017-08-07T11:08:03.695Z,37.87
2017-08-07T11:09:09.757Z,37.77
2017-08-07T11:10:15.835Z,37.76
2017-08-07T11:11:21.879Z,37.12
2017-08-07T11:12:27.965Z,37.43
2017-08-07T11:13:34.059Z,36.34
2017-08-07T11:14:40.123Z,36.84
2017-08-07T11:15:46.183Z,36.44
2017-08-07T11:16:52.245Z,36.22
2017-08-07T11:17:58.303Z,36.26
2017-08-07T11:19:04.395Z,35.23
2017-08-07T11:20:10.441Z,35.79
2017-08-07T11:21:16.303Z,36.09
2017-08-07T11:22:22.335Z,36.39
2017-08-07T11:23:28.397Z,35.99
2017-08-07T11:24:34.504Z,35.88
2017-08-07T11:25:40.560Z,35.25
2017-08-07T11:26:46.618Z,35.69
2017-08-07T11:27:52.689Z,36.14
2017-08-07T11:28:58.731Z,36.07
2017-08-07T11:30:04.881Z,36.86
2017-08-07T11:31:10.983Z,37.23
2017-08-07T11:32:17.014Z,37.54
2017-08-07T11:33:23.044Z,37.31
2017-08-07T11:34:29.103Z,37.94
2017-08-07T11:35:35.184Z,37.32
2017-08-07T11:36:41.225Z,37.17
2017-08-07T11:37:47.286Z,36.96
2017-08-07T11:38:53.316Z,37.17
2017-08-07T11:39:59.356Z,37.22
2017-08-07T11:41:05.464Z,37.19
2017-08-07T11:42:11.489Z,37.60
2017-08-07T11:43:17.524Z,36.80
2017-08-07T11:44:23.596Z,36.62
2017-08-07T11:45:29.653Z,36.56
2017-08-07T11:46:35.729Z,36.02
2017-08-07T11:47:41.821Z,36.22
2017-08-07T11:48:47.878Z,36.38
2017-08-07T11:49:53.928Z,36.28
2017-08-07T11:51:00.067Z,36.78
2017-08-07T11:52:06.219Z,36.85
2017-08-07T11:53:12.278Z,37.00
2017-08-07T11:54:18.321Z,37.12
2017-08-07T11:55:24.356Z,36.67
2017-08-07T11:56:30.425Z,37.23
2017-08-07T11:57:36.527Z,36.23
2017-08-07T11:58:42.577Z,36.44
2017-08-07T11:59:48.647Z,36.65
2017-08-07T12:00:54.782Z,37.07
2017-08-07T12:02:00.851Z,36.28
2017-08-07T12:03:07.025Z,36.36
2017-08-07T12:04:13.070Z,36.89
2017-08-07T12:05:19.147Z,36.46
2017-08-07T12:06:25.225Z,36.43
2017-08-07T12:07:31.274Z,36.43
2017-08-07T12:08:37.372Z,35.90
2017-08-07T12:09:43.449Z,36.64
2017-08-07T12:10:49.540Z,36.95
2017-08-07T12:11:55.645Z,36.15
2017-08-07T12:13:01.718Z,36.11
2017-08-07T12:14:07.884Z,36.46
2017-08-07T12:15:14.002Z,36.87
2017-08-07T12:16:20.099Z,36.59
2017-08-07T12:17:26.166Z,36.48
2017-08-07T12:18:32.219Z,37.05
2017-08-07T12:19:38.305Z,36.69
2017-08-07T12:20:44.377Z,36.36
2017-08-07T12:21:50.453Z,36.25
2017-08-07T12:22:56.521Z,36.11
2017-08-07T12:24:02.676Z,35.85
2017-08-07T12:25:08.749Z,35.11
2017-08-07T12:26:14.805Z,35.03
2017-08-07T12:27:20.861Z,35.14
2017-08-07T12:28:26.937Z,34.91
2017-08-07T12:29:32.979Z,35.21
2017-08-07T12:30:39.077Z,35.50
2017-08-07T12:31:45.113Z,35.51
2017-08-07T12:32:51.156Z,34.50
2017-08-07T12:33:57.213Z,34.67
2017-08-07T12:35:03.341Z,34.68
2017-08-07T12:36:09.421Z,35.38
2017-08-07T12:37:15.460Z,35.27
2017-08-07T12:38:21.501Z,35.34
2017-08-07T12:39:27.594Z,35.50
2017-08-07T12:40:33.636Z,35.74
2017-08-07T12:41:39.733Z,35.34
2017-08-07T12:42:45.781Z,34.79
2017-08-07T12:43:51.842Z,34.45
2017-08-07T12:44:57.877Z,33.51
2017-08-07T12:46:04.001Z,33.96
2017-08-07T12:47:10.089Z,33.91
2017-08-07T12:48:16.148Z,33.41
2017-08-07T12:49:22.183Z,34.00
2017-08-07T12:50:28.209Z,33.92
2017-08-07T12:51:34.255Z,34.08
2017-08-07T12:52:40.330Z,33.84
2017-08-07T12:53:46.397Z,34.89
2017-08-07T12:54:52.451Z,34.60
2017-08-07T12:55:58.501Z,34.47
2017-08-07T12:57:04.572Z,33.88
2017-08-07T12:58:10.673Z,34.25
2017-08-07T12:59:16.749Z,34.70
2017-08-07T13:00:26.045Z,34.30
2017-08-07T13:01:31.902Z,34.49
2017-08-07T13:02:37.986Z,34.49
2017-08-07T13:03:44.069Z,34.33
2017-08-07T13:04:50.132Z,34.41
2017-08-07T13:05:56.171Z,34.61
2017-08-07T13:07:02.227Z,34.54
2017-08-07T13:08:08.291Z,34.69
2017-08-07T13:09:14.390Z,35.09
2017-08-07T13:10:20.434Z,34.93
2017-08-07T13:11:26.501Z,34.91
2017-08-07T13:12:32.557Z,34.60
2017-08-07T13:13:38.577Z,33.48
2017-08-07T13:14:44.675Z,33.14
2017-08-07T13:15:50.737Z,33.23
2017-08-07T13:16:56.808Z,33.26
2017-08-07T13:18:02.945Z,33.65
2017-08-07T13:19:09.008Z,34.08
2017-08-07T13:20:15.088Z,33.14
2017-08-07T13:21:21.187Z,33.60
2017-08-07T13:22:27.216Z,33.41
2017-08-07T13:23:33.309Z,33.82
2017-08-07T13:24:39.364Z,34.71
2017-08-07T13:25:46.140Z,34.58
2017-08-07T13:26:52.211Z,34.57
2017-08-07T13:27:58.258Z,34.46
2017-08-07T13:29:04.325Z,34.87
2017-08-07T13:30:10.383Z,34.35
2017-08-07T13:31:16.478Z,34.15
2017-08-07T13:32:22.525Z,35.04
2017-08-07T13:33:28.564Z,34.76
2017-08-07T13:34:34.605Z,35.08
2017-08-07T13:35:40.641Z,35.09
2017-08-07T13:36:46.717Z,35.35
2017-08-07T13:37:52.755Z,35.34
2017-08-07T13:38:58.809Z,35.01
2017-08-07T13:40:04.223Z,34.45
2017-08-07T13:41:10.247Z,34.75
2017-08-07T13:42:16.316Z,34.61
2017-08-07T13:43:22.368Z,33.47
2017-08-07T13:44:28.430Z,32.96
2017-08-07T13:45:34.280Z,32.92
2017-08-07T13:46:40.330Z,33.62
2017-08-07T13:47:46.417Z,33.61
2017-08-07T13:48:52.491Z,33.88
2017-08-07T13:49:58.581Z,34.24
2017-08-07T13:51:04.636Z,34.27
2017-08-07T13:52:10.687Z,34.09
2017-08-07T13:53:16.773Z,34.10
2017-08-07T13:54:22.838Z,33.67
2017-08-07T13:55:28.874Z,33.47
2017-08-07T13:56:35.317Z,33.37
2017-08-07T13:57:41.712Z,33.47
2017-08-07T13:58:47.794Z,33.33
2017-08-07T13:59:53.813Z,33.70
2017-08-07T14:00:59.875Z,34.00
2017-08-07T14:02:05.941Z,33.57
2017-08-07T14:03:11.990Z,33.55
2017-08-07T14:04:18.067Z,33.19
2017-08-07T14:05:24.133Z,32.98
2017-08-07T14:06:30.169Z,33.08
2017-08-07T14:07:36.563Z,33.17
2017-08-07T14:08:42.666Z,33.18
2017-08-07T14:09:48.757Z,33.06
2017-08-07T14:10:54.788Z,33.28
2017-08-07T14:12:01.697Z,33.55